Time;durP1;ratioP1;P1;durP2;ratioP2;P2;SDS_P1;SDS_P2;PMS_P1;PMS_P2;Temp;Humidity;BMP_temperature;BMP_pressure;BME280_temperature;BME280_humidity;BME280_pressure;Samples;Min_cycle;Max_cycle;Signal;HPM_P1;HPM_P2
2021/06/12 00:02:05;;;;;;;5.25;4.78;;;;;;;21.54;56.67;95917.00;5016505;28;20213;-84
2021/06/12 00:04:31;;;;;;;5.30;4.88;;;;;;;21.47;57.07;95914.53;5016166;28;20234;-85
2021/06/12 00:07:01;;;;;;;5.82;5.22;;;;;;;21.46;57.14;95918.19;5016355;28;20198;-85
2021/06/12 00:09:29;;;;;;;4.75;4.43;;;;;;;21.46;57.14;95909.53;5016431;28;20198;-86
2021/06/12 00:11:58;;;;;;;5.38;4.90;;;;;;;21.48;57.17;95904.84;5016363;28;20244;-85
2021/06/12 00:14:24;;;;;;;5.20;4.80;;;;;;;21.47;57.47;95906.69;5015927;28;20669;-85
2021/06/12 00:16:50;;;;;;;5.40;4.90;;;;;;;21.50;57.56;95900.16;5016710;28;20206;-85
2021/06/12 00:19:16;;;;;;;5.20;4.80;;;;;;;21.46;58.27;95904.28;5016229;28;20227;-85
2021/06/12 00:21:42;;;;;;;7.03;5.15;;;;;;;21.42;58.49;95911.81;5015531;28;20302;-85
2021/06/12 00:24:09;;;;;;;5.97;5.35;;;;;;;21.36;58.66;95907.50;5015840;28;20244;-88
2021/06/12 00:26:37;;;;;;;5.25;4.85;;;;;;;21.26;59.47;95905.53;5015347;28;20229;-86
2021/06/12 00:29:04;;;;;;;5.30;4.90;;;;;;;21.23;59.65;95903.38;5015220;28;20229;-86
2021/06/12 00:31:30;;;;;;;5.07;4.68;;;;;;;21.27;59.53;95911.56;5015001;28;20225;-86
2021/06/12 00:33:57;;;;;;;5.90;5.03;;;;;;;21.25;59.75;95908.38;5014355;28;20230;-86
2021/06/12 00:36:31;;;;;;;5.60;5.10;;;;;;;21.24;60.17;95912.03;5014605;28;20218;-86
2021/06/12 00:39:05;;;;;;;5.55;5.07;;;;;;;21.26;59.80;95907.34;4995786;28;20207;-86
2021/06/12 00:41:31;;;;;;;5.82;5.32;;;;;;;21.25;59.50;95917.03;4995798;28;20227;-86
2021/06/12 00:43:59;;;;;;;5.32;4.88;;;;;;;21.11;60.98;95905.22;4994684;28;20829;-85
2021/06/12 00:46:25;;;;;;;5.32;4.90;;;;;;;21.11;60.32;95907.84;4995088;28;20207;-85
2021/06/12 00:48:52;;;;;;;5.43;4.93;;;;;;;21.08;60.73;95912.75;4995542;28;20586;-85
2021/06/12 00:51:20;;;;;;;5.35;4.85;;;;;;;21.11;60.40;95904.44;4995937;28;20255;-85
2021/06/12 00:53:47;;;;;;;5.30;4.90;;;;;;;21.11;60.53;95912.28;5014699;28;20544;-85
2021/06/12 00:56:15;;;;;;;5.03;4.72;;;;;;;21.08;60.50;95908.31;5015297;28;20282;-85
2021/06/12 00:58:43;;;;;;;5.43;5.03;;;;;;;21.06;60.61;95909.56;5014803;28;20203;-85
2021/06/12 01:01:11;;;;;;;5.00;4.60;;;;;;;21.06;60.05;95902.50;5014623;28;20317;-85
2021/06/12 01:03:40;;;;;;;5.32;4.82;;;;;;;21.03;60.30;95902.97;5015407;28;20202;-85
2021/06/12 01:06:07;;;;;;;13.73;5.10;;;;;;;20.98;60.52;95903.66;5015391;28;20297;-85
2021/06/12 01:08:33;;;;;;;4.95;4.53;;;;;;;21.00;60.11;95909.47;5014721;28;20214;-86
2021/06/12 01:10:59;;;;;;;4.72;4.43;;;;;;;20.99;60.59;95902.63;5017363;28;20211;-85
2021/06/12 01:13:31;;;;;;;5.43;5.03;;;;;;;21.02;60.40;95901.38;5017174;28;20242;-85
2021/06/12 01:16:01;;;;;;;5.18;4.68;;;;;;;20.98;60.77;95905.50;5018098;28;20269;-85
2021/06/12 01:18:31;;;;;;;5.25;4.85;;;;;;;20.98;61.08;95902.88;5017520;28;20241;-85
2021/06/12 01:21:07;;;;;;;5.22;4.82;;;;;;;20.97;60.93;95901.31;5017451;28;20244;-86
2021/06/12 01:24:09;;;;;;;4.97;4.60;;;;;;;20.92;61.32;95901.22;5017123;28;20687;-86
2021/06/12 01:26:49;;;;;;;5.57;5.15;;;;;;;20.87;61.34;95904.53;5017568;28;20217;-86
2021/06/12 01:29:27;;;;;;;4.65;4.35;;;;;;;20.87;61.38;95901.91;5016826;28;20605;-85
2021/06/12 01:31:55;;;;;;;5.38;4.97;;;;;;;20.88;61.47;95902.69;5017681;28;20202;-86
2021/06/12 01:34:23;;;;;;;5.28;4.90;;;;;;;20.85;61.65;95900.53;5016219;28;20276;-85
2021/06/12 01:36:49;;;;;;;5.18;4.78;;;;;;;20.83;61.56;95900.78;5017113;28;20207;-85
2021/06/12 01:39:19;;;;;;;4.93;4.53;;;;;;;20.84;61.44;95909.41;5017570;28;20225;-87
2021/06/12 01:41:47;;;;;;;5.45;5.00;;;;;;;20.82;61.42;95904.41;5016555;28;20291;-86
2021/06/12 01:44:14;;;;;;;5.43;5.03;;;;;;;20.80;61.74;95896.00;5016625;28;20203;-86
2021/06/12 01:46:40;;;;;;;5.20;4.57;;;;;;;20.80;62.01;95889.97;5016617;28;20202;-86
2021/06/12 01:49:08;;;;;;;5.45;5.05;;;;;;;20.81;61.89;95900.22;5017250;28;20794;-84
2021/06/12 01:51:34;;;;;;;5.32;4.82;;;;;;;20.79;61.78;95883.94;5016072;28;20740;-86
2021/06/12 01:54:01;;;;;;;5.43;4.97;;;;;;;20.76;62.05;95887.03;5015321;28;20210;-85
2021/06/12 01:56:27;;;;;;;5.20;4.80;;;;;;;20.74;62.16;95894.31;5017415;28;20202;-85
2021/06/12 01:58:53;;;;;;;5.05;4.65;;;;;;;20.73;62.61;95890.13;5016504;28;20210;-86
2021/06/12 02:01:23;;;;;;;5.10;4.70;;;;;;;20.75;61.92;95889.88;5016850;28;20229;-86
2021/06/12 02:03:51;;;;;;;5.25;4.85;;;;;;;20.74;62.04;95888.31;5021171;28;20207;-86
2021/06/12 02:06:20;;;;;;;5.00;4.50;;;;;;;20.72;62.71;95882.50;5035395;28;20198;-85
2021/06/12 02:08:46;;;;;;;6.10;4.85;;;;;;;20.72;62.59;95879.88;5033135;28;20270;-85
2021/06/12 02:11:13;;;;;;;5.30;4.90;;;;;;;20.70;61.87;95885.34;5016065;28;20215;-83
2021/06/12 02:13:41;;;;;;;5.15;4.75;;;;;;;20.69;62.37;95887.16;5015929;28;20709;-84
2021/06/12 02:16:08;;;;;;;5.28;4.78;;;;;;;20.67;62.70;95889.22;5016104;28;20203;-85
2021/06/12 02:18:35;;;;;;;5.35;4.80;;;;;;;20.65;62.69;95888.66;5016393;28;20265;-86
2021/06/12 02:21:03;;;;;;;4.95;4.55;;;;;;;20.62;63.36;95886.50;5015460;28;20235;-85
2021/06/12 02:23:31;;;;;;;5.32;4.80;;;;;;;20.62;62.78;95881.25;5015262;28;20203;-85
2021/06/12 02:25:57;;;;;;;5.03;4.60;;;;;;;20.61;62.70;95882.28;5016130;28;20226;-84
2021/06/12 02:28:33;;;;;;;5.10;4.70;;;;;;;20.58;63.17;95876.75;5016785;28;20191;-86
2021/06/12 02:31:03;;;;;;;5.15;4.72;;;;;;;20.54;63.34;95873.78;5015833;28;20221;-85
2021/06/12 02:33:32;;;;;;;5.05;4.65;;;;;;;20.51;63.30;95874.25;5014056;28;20230;-85
2021/06/12 02:36:00;;;;;;;4.75;4.45;;;;;;;20.52;62.92;95875.84;5015481;28;20195;-86
2021/06/12 02:38:27;;;;;;;4.97;4.55;;;;;;;20.55;63.03;95874.59;5015796;28;20404;-85
2021/06/12 02:40:54;;;;;;;5.18;4.80;;;;;;;20.54;63.06;95871.19;5015919;28;20615;-84
2021/06/12 02:43:20;;;;;;;5.35;4.90;;;;;;;20.52;63.35;95875.84;5015596;28;20210;-85
2021/06/12 02:45:46;;;;;;;4.78;4.32;;;;;;;20.51;63.14;95876.88;5016010;28;20203;-85
2021/06/12 02:48:15;;;;;;;10.05;4.40;;;;;;;20.46;63.47;95878.56;5015357;28;20270;-84
2021/06/12 02:50:44;;;;;;;4.85;4.55;;;;;;;20.48;63.18;95876.53;5016372;28;20284;-84
2021/06/12 02:53:12;;;;;;;5.10;4.60;;;;;;;20.46;63.24;95878.56;5015430;28;20199;-85
2021/06/12 02:55:40;;;;;;;5.03;4.63;;;;;;;20.42;63.79;95877.44;5015428;28;20282;-83
2021/06/12 02:58:09;;;;;;;5.53;4.38;;;;;;;20.43;63.77;95879.03;5015713;28;20952;-86
2021/06/12 03:00:36;;;;;;;5.50;5.10;;;;;;;20.40;63.51;95880.28;5015131;28;20230;-84
2021/06/12 03:03:03;;;;;;;4.97;4.57;;;;;;;20.35;63.65;95878.34;5014659;28;20207;-84
2021/06/12 03:05:32;;;;;;;4.78;4.40;;;;;;;20.34;63.97;95889.03;5015025;28;20321;-84
2021/06/12 03:07:59;;;;;;;5.00;4.60;;;;;;;20.38;63.70;95881.56;5015335;28;20237;-86
2021/06/12 03:10:29;;;;;;;4.93;4.43;;;;;;;20.35;63.92;95873.13;5015696;28;20238;-85
2021/06/12 03:12:56;;;;;;;5.07;4.47;;;;;;;20.32;63.77;95881.41;5015145;28;20234;-87
2021/06/12 03:15:25;;;;;;;5.35;4.95;;;;;;;20.28;64.31;95885.50;5015020;28;20202;-84
2021/06/12 03:17:52;;;;;;;4.85;4.45;;;;;;;20.31;64.47;95879.03;5015547;28;20257;-85
2021/06/12 03:20:20;;;;;;;5.00;4.53;;;;;;;20.32;63.98;95884.03;5015028;28;20378;-84
2021/06/12 03:22:49;;;;;;;4.95;4.53;;;;;;;20.34;63.80;95881.19;5014762;28;20210;-86
2021/06/12 03:25:19;;;;;;;5.30;4.80;;;;;;;20.28;64.14;95875.06;5014821;28;20207;-84
2021/06/12 03:27:46;;;;;;;4.70;4.30;;;;;;;20.32;63.80;95883.25;5015156;28;20195;-84
2021/06/12 03:30:13;;;;;;;5.05;4.32;;;;;;;20.29;63.91;95874.03;5012065;28;20226;-86
2021/06/12 03:32:41;;;;;;;5.05;4.65;;;;;;;20.32;64.10;95876.19;5006246;28;20227;-87
2021/06/12 03:35:09;;;;;;;4.60;4.20;;;;;;;20.35;63.79;95880.97;5011398;28;20222;-86
2021/06/12 03:37:38;;;;;;;4.75;4.35;;;;;;;20.35;63.63;95882.78;5011075;28;20202;-87
2021/06/12 03:40:05;;;;;;;4.80;4.40;;;;;;;20.39;63.49;95886.56;5010956;28;20660;-88
2021/06/12 03:42:31;;;;;;;4.63;4.20;;;;;;;20.41;63.28;95891.53;5010012;28;20214;-87
2021/06/12 03:45:01;;;;;;;4.60;4.20;;;;;;;20.38;63.17;95898.06;5010456;28;20213;-87
2021/06/12 03:47:27;;;;;;;5.40;4.45;;;;;;;20.43;63.25;95892.13;5010443;28;20211;-88
2021/06/12 03:49:55;;;;;;;4.60;4.20;;;;;;;20.45;63.69;95896.09;5010625;28;20225;-87
2021/06/12 03:52:24;;;;;;;4.60;4.20;;;;;;;20.47;63.64;95901.88;5010231;28;20202;-87
2021/06/12 03:54:51;;;;;;;4.75;4.45;;;;;;;20.50;63.15;95892.78;5010460;28;20203;-88
2021/06/12 03:57:18;;;;;;;4.30;4.00;;;;;;;20.55;63.62;95892.91;5010717;28;20214;-88
2021/06/12 03:59:45;;;;;;;4.63;4.22;;;;;;;20.57;63.21;95893.47;5009278;28;20234;-87
2021/06/12 04:02:15;;;;;;;4.97;4.53;;;;;;;20.56;63.08;95895.28;5009263;28;20203;-87
2021/06/12 04:04:42;;;;;;;4.65;4.25;;;;;;;20.55;63.19;95903.38;5009737;28;20210;-87
2021/06/12 04:07:10;;;;;;;4.95;4.53;;;;;;;20.56;63.19;95900.53;5010765;28;20266;-87
2021/06/12 04:09:36;;;;;;;4.47;4.15;;;;;;;20.58;62.89;95897.69;5006115;28;20241;-86
2021/06/12 04:12:01;;;;;;;4.60;4.30;;;;;;;20.59;62.94;95901.88;5001298;28;20226;-86
2021/06/12 04:14:27;;;;;;;5.00;4.60;;;;;;;20.60;63.00;95895.59;5008790;28;20291;-87
2021/06/12 04:16:53;;;;;;;4.80;4.40;;;;;;;20.55;63.23;95898.13;5014337;28;20206;-87
2021/06/12 04:19:19;;;;;;;4.75;4.35;;;;;;;20.59;63.00;95899.28;4990149;28;20203;-86
2021/06/12 04:21:46;;;;;;;5.00;4.40;;;;;;;20.62;62.87;95902.19;4989779;28;20254;-87
2021/06/12 04:24:13;;;;;;;4.93;4.40;;;;;;;20.61;62.85;95905.84;4990114;28;20210;-87
2021/06/12 04:26:39;;;;;;;4.80;4.40;;;;;;;20.62;62.71;95904.81;5000333;28;20202;-86
2021/06/12 04:29:05;;;;;;;4.82;4.25;;;;;;;20.62;63.03;95906.63;5009308;28;20571;-87
2021/06/12 04:31:31;;;;;;;4.72;4.28;;;;;;;20.60;63.11;95906.06;5008649;28;20289;-86
2021/06/12 04:33:57;;;;;;;4.60;4.20;;;;;;;20.64;62.79;95908.00;5008602;28;20233;-87
2021/06/12 04:36:23;;;;;;;4.50;4.10;;;;;;;20.61;63.01;95897.19;5009336;28;20207;-86
2021/06/12 04:38:49;;;;;;;4.13;3.83;;;;;;;20.60;63.05;95900.81;5010089;28;20218;-87
2021/06/12 04:41:16;;;;;;;4.78;4.38;;;;;;;20.66;62.93;95900.72;5009578;28;20227;-86
2021/06/12 04:43:42;;;;;;;4.40;4.10;;;;;;;20.74;62.79;95906.63;5010729;28;20250;-87
2021/06/12 04:46:08;;;;;;;4.25;3.95;;;;;;;20.83;62.72;95900.78;5013961;28;20207;-86
2021/06/12 04:48:34;;;;;;;4.82;4.53;;;;;;;20.88;62.58;95900.88;5015047;28;20230;-87
2021/06/12 04:51:00;;;;;;;4.45;4.05;;;;;;;21.01;62.31;95907.66;5015379;28;20247;-86
2021/06/12 04:53:30;;;;;;;4.47;4.07;;;;;;;21.12;62.14;95913.88;5015625;28;20214;-88
2021/06/12 04:55:56;;;;;;;4.20;3.85;;;;;;;21.18;61.52;95911.09;5014558;28;20218;-86
2021/06/12 04:58:23;;;;;;;4.50;4.18;;;;;;;21.18;61.77;95916.34;5014921;28;20956;-88
2021/06/12 05:00:51;;;;;;;4.40;4.10;;;;;;;21.30;61.41;95916.34;5014214;28;20235;-86
2021/06/12 05:03:19;;;;;;;4.40;4.10;;;;;;;21.32;61.75;95911.66;5014197;28;20213;-87
2021/06/12 05:05:45;;;;;;;5.10;4.32;;;;;;;21.25;61.39;95914.41;5014102;28;20217;-88
2021/06/12 05:08:11;;;;;;;4.55;4.20;;;;;;;21.34;61.31;95913.03;5014045;28;20206;-86
2021/06/12 05:10:37;;;;;;;4.32;4.00;;;;;;;21.36;61.34;95910.94;5015254;28;20590;-86
2021/06/12 05:13:03;;;;;;;5.07;4.15;;;;;;;21.44;60.75;95916.81;5024705;28;20670;-86
2021/06/12 05:15:30;;;;;;;5.10;4.30;;;;;;;21.52;61.17;95913.84;5013396;28;20203;-87
2021/06/12 05:17:57;;;;;;;4.13;3.83;;;;;;;21.50;60.78;95908.03;5014007;28;20226;-86
2021/06/12 05:20:24;;;;;;;4.15;3.85;;;;;;;21.43;60.20;95913.41;5017007;28;20652;-87
2021/06/12 05:22:50;;;;;;;5.57;3.92;;;;;;;21.38;59.73;95918.56;5016898;28;20238;-87
2021/06/12 05:25:17;;;;;;;6.38;3.90;;;;;;;21.43;59.89;95915.25;5016637;28;20206;-84
2021/06/12 05:27:43;;;;;;;4.38;3.97;;;;;;;21.37;59.79;95917.75;5015537;28;20199;-87
2021/06/12 05:30:11;;;;;;;4.13;3.83;;;;;;;21.44;59.50;95908.97;5014101;28;20215;-88
2021/06/12 05:32:38;;;;;;;4.78;4.00;;;;;;;21.51;59.49;95915.66;5013773;28;20227;-87
2021/06/12 05:35:06;;;;;;;4.20;3.90;;;;;;;21.48;59.38;95917.94;5013976;28;20214;-88
2021/06/12 05:37:34;;;;;;;5.07;4.40;;;;;;;21.55;58.87;95918.59;5013545;28;20199;-88
2021/06/12 05:40:00;;;;;;;4.30;4.00;;;;;;;21.68;58.91;95915.66;5013851;28;20223;-87
2021/06/12 05:42:26;;;;;;;5.38;4.22;;;;;;;21.76;58.55;95917.88;5013678;28;20289;-87
2021/06/12 05:44:52;;;;;;;4.88;4.18;;;;;;;21.83;58.35;95917.72;5017533;28;20796;-88
2021/06/12 05:47:18;;;;;;;4.22;3.83;;;;;;;21.96;58.13;95920.03;5019371;28;20206;-87
2021/06/12 05:49:45;;;;;;;4.55;4.15;;;;;;;22.10;57.73;95931.03;5017867;28;20257;-88
2021/06/12 05:52:11;;;;;;;4.57;4.18;;;;;;;22.11;57.38;95932.63;5011930;28;20199;-88
2021/06/12 05:54:37;;;;;;;4.18;3.88;;;;;;;22.21;57.07;95927.50;5007713;28;20195;-87
2021/06/12 05:57:04;;;;;;;4.15;3.85;;;;;;;22.27;56.77;95921.31;5014796;28;20283;-89
2021/06/12 05:59:30;;;;;;;4.38;4.07;;;;;;;22.29;55.70;95914.78;5017494;28;20210;-87
2021/06/12 06:01:56;;;;;;;4.47;4.18;;;;;;;22.39;55.49;95922.78;5001146;28;20481;-87
2021/06/12 06:04:22;;;;;;;4.25;3.95;;;;;;;22.29;54.60;95920.03;5009657;28;20199;-88
2021/06/12 06:06:50;;;;;;;4.20;3.90;;;;;;;22.30;54.54;95919.00;5011112;28;20642;-88
2021/06/12 06:09:16;;;;;;;4.57;3.72;;;;;;;22.39;54.93;95924.59;5016551;28;20188;-87
2021/06/12 06:11:42;;;;;;;4.93;4.03;;;;;;;22.47;54.81;95921.56;5014001;28;20191;-87
2021/06/12 06:14:08;;;;;;;4.40;4.10;;;;;;;22.50;53.84;95920.31;5042271;28;20201;-87
2021/06/12 06:16:34;;;;;;;4.55;4.15;;;;;;;22.48;53.67;95925.00;5023772;28;20268;-87
2021/06/12 06:19:00;;;;;;;4.80;4.30;;;;;;;22.54;53.46;95918.75;5022503;28;20206;-88
2021/06/12 06:21:26;;;;;;;4.53;4.13;;;;;;;22.60;53.45;95923.84;5018194;28;20281;-88
2021/06/12 06:23:53;;;;;;;4.68;4.38;;;;;;;22.68;53.55;95928.69;5020042;28;20337;-88
2021/06/12 06:26:19;;;;;;;4.47;4.18;;;;;;;22.69;52.93;95917.13;5019360;28;20901;-87
2021/06/12 06:28:45;;;;;;;5.15;4.40;;;;;;;22.69;52.46;95919.75;5020951;28;20207;-88
2021/06/12 06:31:11;;;;;;;4.25;3.88;;;;;;;22.61;52.42;95916.75;5020285;28;20218;-88
2021/06/12 06:33:37;;;;;;;4.47;4.07;;;;;;;22.65;53.33;95920.47;5015312;28;20258;-87
2021/06/12 06:36:04;;;;;;;5.05;4.55;;;;;;;22.69;52.77;95924.22;5015160;28;20654;-87
2021/06/12 06:38:30;;;;;;;4.85;4.53;;;;;;;22.69;52.52;95921.59;5008995;28;20460;-88
2021/06/12 06:40:57;;;;;;;4.65;4.18;;;;;;;22.73;52.92;95923.47;5011003;28;20313;-88
2021/06/12 06:43:23;;;;;;;4.43;4.13;;;;;;;22.78;53.07;95919.34;5018998;28;20206;-88
2021/06/12 06:45:49;;;;;;;4.90;4.20;;;;;;;22.93;53.34;95916.91;5011203;28;20191;-88
2021/06/12 06:48:16;;;;;;;5.03;4.55;;;;;;;23.06;53.48;95919.94;5018947;28;20258;-87
2021/06/12 06:50:43;;;;;;;4.93;4.20;;;;;;;23.21;52.84;95926.41;5019405;28;20250;-87
2021/06/12 06:53:09;;;;;;;5.40;4.18;;;;;;;23.25;52.62;95922.25;5018762;28;20205;-87
2021/06/12 06:55:35;;;;;;;6.70;4.45;;;;;;;23.21;51.85;95921.16;5019415;28;20195;-88
2021/06/12 06:58:03;;;;;;;5.53;4.80;;;;;;;23.19;51.22;95915.34;5017770;28;20203;-88
2021/06/12 07:00:30;;;;;;;5.05;4.65;;;;;;;23.22;51.54;95913.00;5017883;28;20230;-88
2021/06/12 07:02:56;;;;;;;4.78;4.35;;;;;;;23.24;51.61;95915.41;5017128;28;20290;-88
2021/06/12 07:05:22;;;;;;;4.65;4.25;;;;;;;23.27;52.11;95922.78;5009697;28;20225;-88
2021/06/12 07:07:48;;;;;;;4.63;4.28;;;;;;;23.26;51.70;95929.88;5007485;28;20199;-88
2021/06/12 07:10:15;;;;;;;4.60;4.20;;;;;;;23.33;51.35;95927.03;5005189;28;20302;-88
2021/06/12 07:12:41;;;;;;;5.10;4.40;;;;;;;23.37;51.68;95926.31;5012819;28;20198;-87
2021/06/12 07:15:10;;;;;;;4.70;4.40;;;;;;;23.27;51.53;95928.03;5010574;28;20206;-87
2021/06/12 07:17:37;;;;;;;5.20;4.80;;;;;;;23.25;51.81;95925.66;5020452;28;20719;-88
2021/06/12 07:20:05;;;;;;;5.25;4.38;;;;;;;23.38;51.97;95922.63;5008781;28;20229;-88
2021/06/12 07:22:31;;;;;;;4.97;4.68;;;;;;;23.47;51.96;95925.63;5007290;28;20210;-87
2021/06/12 07:24:57;;;;;;;5.10;4.65;;;;;;;23.53;51.42;95926.47;5009351;28;20207;-88
2021/06/12 07:27:23;;;;;;;5.03;4.53;;;;;;;23.56;51.15;95920.72;5011191;28;20199;-88
2021/06/12 07:29:49;;;;;;;5.00;4.60;;;;;;;23.65;51.63;95921.84;5014944;28;20222;-87
2021/06/12 07:32:16;;;;;;;5.15;4.70;;;;;;;23.68;51.49;95923.97;5007325;28;20223;-88
2021/06/12 07:34:42;;;;;;;7.68;7.07;;;;;;;23.83;51.26;95918.84;5007759;28;20219;-88
2021/06/12 07:37:09;;;;;;;5.78;5.28;;;;;;;24.03;50.80;95918.19;5017763;28;20210;-88
2021/06/12 07:39:35;;;;;;;5.30;4.90;;;;;;;24.13;50.77;95904.31;5006186;28;20191;-87
2021/06/12 07:42:01;;;;;;;5.90;5.30;;;;;;;24.15;49.50;95915.38;5016062;28;20258;-89
2021/06/12 07:44:27;;;;;;;5.03;4.72;;;;;;;24.14;49.94;95905.91;5014582;28;20681;-88
2021/06/12 07:46:53;;;;;;;4.97;4.57;;;;;;;24.32;49.92;95905.50;5002179;28;20204;-87
2021/06/12 07:49:20;;;;;;;6.30;5.35;;;;;;;24.34;49.54;95909.47;5011372;28;20213;-87
2021/06/12 07:51:46;;;;;;;5.03;4.63;;;;;;;24.50;49.91;95905.06;5004793;28;20195;-87
2021/06/12 07:54:13;;;;;;;5.43;4.55;;;;;;;24.61;49.69;95900.66;5018389;28;20205;-87
2021/06/12 07:56:39;;;;;;;6.75;6.18;;;;;;;24.71;50.39;95906.75;5016477;28;20214;-87
2021/06/12 07:59:05;;;;;;;6.53;6.03;;;;;;;24.78;49.80;95904.69;5015285;28;20206;-88
2021/06/12 08:01:36;;;;;;;6.05;5.45;;;;;;;24.84;49.94;95908.09;5016584;28;20226;-86
2021/06/12 08:04:02;;;;;;;5.38;4.85;;;;;;;24.94;49.28;95910.00;5015568;28;20282;-88
2021/06/12 08:06:30;;;;;;;5.00;4.60;;;;;;;25.01;49.18;95915.84;5016448;28;20202;-87
2021/06/12 08:08:56;;;;;;;6.95;5.00;;;;;;;24.96;48.44;95905.28;5014264;28;20195;-87
2021/06/12 08:11:22;;;;;;;5.65;5.18;;;;;;;24.93;48.52;95908.41;5016610;28;20218;-86
2021/06/12 08:13:48;;;;;;;6.15;5.68;;;;;;;25.01;48.08;95908.75;5019449;28;20211;-88
2021/06/12 08:16:14;;;;;;;5.65;5.15;;;;;;;25.21;48.27;95904.56;5027965;28;20566;-85
2021/06/12 08:18:40;;;;;;;5.55;5.15;;;;;;;25.35;47.62;95903.81;5020806;28;20293;-86
2021/06/12 08:21:06;;;;;;;5.57;5.18;;;;;;;25.46;47.14;95912.50;5023197;28;20293;-85
2021/06/12 08:23:33;;;;;;;5.60;5.20;;;;;;;25.47;46.43;95903.53;5006126;28;20195;-86
2021/06/12 08:25:59;;;;;;;6.28;5.05;;;;;;;25.53;46.82;95899.06;5010229;28;20202;-85
2021/06/12 08:28:26;;;;;;;5.60;4.63;;;;;;;25.58;46.69;95899.88;5021116;28;20393;-87
2021/06/12 08:30:52;;;;;;;7.97;5.15;;;;;;;25.76;46.56;95896.75;5020179;28;20229;-86
2021/06/12 08:33:18;;;;;;;4.80;4.50;;;;;;;25.85;46.65;95904.91;5020063;28;20293;-87
2021/06/12 08:35:44;;;;;;;5.55;5.15;;;;;;;25.80;46.17;95904.88;5021211;28;20203;-87
2021/06/12 08:38:10;;;;;;;5.35;4.95;;;;;;;25.64;46.00;95906.75;5021016;28;20199;-87
2021/06/12 08:40:38;;;;;;;5.28;4.85;;;;;;;25.70;46.54;95907.53;5021226;28;20249;-87
2021/06/12 08:43:05;;;;;;;5.13;4.72;;;;;;;25.84;46.12;95910.44;5021563;28;20206;-87
2021/06/12 08:45:32;;;;;;;5.40;4.88;;;;;;;25.95;46.04;95906.75;5020704;28;20214;-86
2021/06/12 08:47:59;;;;;;;5.13;4.63;;;;;;;26.16;45.06;95903.03;5021039;28;20223;-87
2021/06/12 08:50:27;;;;;;;5.40;5.00;;;;;;;26.28;43.84;95900.09;5022605;28;20337;-87
2021/06/12 08:52:55;;;;;;;5.15;4.70;;;;;;;26.33;45.15;95903.56;5023282;28;20207;-87
2021/06/12 08:55:22;;;;;;;6.43;5.93;;;;;;;26.36;46.75;95900.34;5022419;28;20195;-86
2021/06/12 08:57:51;;;;;;;5.75;5.35;;;;;;;26.46;45.26;95895.06;5022963;28;20206;-86
2021/06/12 09:00:23;;;;;;;5.30;4.90;;;;;;;26.40;44.91;95903.25;5023835;28;20657;-85
2021/06/12 09:03:07;;;;;;;5.15;4.85;;;;;;;26.27;46.46;95909.88;5022247;28;20207;-85
2021/06/12 09:05:51;;;;;;;5.10;4.70;;;;;;;26.38;44.98;95903.50;5002887;28;20286;-87
2021/06/12 09:08:21;;;;;;;5.10;4.80;;;;;;;26.59;45.56;95906.09;5005021;28;20263;-85
2021/06/12 09:10:58;;;;;;;5.70;5.30;;;;;;;26.66;44.45;95904.75;5005902;28;20248;-85
2021/06/12 09:13:43;;;;;;;5.95;5.45;;;;;;;26.73;44.22;95907.13;5004182;28;20294;-84
2021/06/12 09:16:23;;;;;;;5.72;5.32;;;;;;;26.80;44.67;95904.97;5003641;28;20200;-87
2021/06/12 09:18:51;;;;;;;5.25;4.85;;;;;;;26.94;43.70;95911.25;5004911;28;20203;-87
2021/06/12 09:21:28;;;;;;;5.55;5.05;;;;;;;26.98;44.97;95904.38;5013790;28;20226;-86
2021/06/12 09:23:59;;;;;;;5.47;5.07;;;;;;;26.95;43.17;95915.50;5028526;28;20209;-85
2021/06/12 09:26:44;;;;;;;5.18;4.88;;;;;;;26.99;43.05;95905.16;5027596;28;20199;-85
2021/06/12 09:29:12;;;;;;;5.60;5.13;;;;;;;26.98;42.53;95911.50;5025671;28;20195;-85
2021/06/12 09:31:44;;;;;;;5.30;4.80;;;;;;;26.78;41.60;95907.09;5025661;28;20307;-85
2021/06/12 09:34:14;;;;;;;7.25;6.68;;;;;;;26.99;42.46;95905.16;5023701;28;20286;-86
2021/06/12 09:36:42;;;;;;;5.72;5.30;;;;;;;26.91;40.92;95903.09;5022686;28;20210;-85
2021/06/12 09:39:14;;;;;;;5.70;5.30;;;;;;;26.98;41.15;95904.38;5024242;28;20213;-87
2021/06/12 09:41:44;;;;;;;6.07;5.47;;;;;;;26.98;40.94;95901.72;5001980;28;20227;-88
2021/06/12 09:44:28;;;;;;;5.80;5.40;;;;;;;27.00;40.68;95902.25;5006299;28;20209;-85
2021/06/12 09:46:55;;;;;;;5.72;5.32;;;;;;;27.06;40.05;95895.88;5022684;28;20203;-85
2021/06/12 09:49:30;;;;;;;5.88;5.47;;;;;;;27.29;41.39;95889.16;5018830;28;20204;-84
2021/06/12 09:52:10;;;;;;;6.35;5.00;;;;;;;27.52;40.17;95895.56;5011249;28;20258;-87
2021/06/12 09:54:41;;;;;;;5.43;5.05;;;;;;;27.80;40.27;95897.50;5018602;28;20617;-86
2021/06/12 09:57:08;;;;;;;5.70;5.28;;;;;;;28.02;39.39;95883.81;5021911;28;20285;-87
2021/06/12 09:59:40;;;;;;;6.50;5.90;;;;;;;27.98;37.71;95896.03;5023119;28;20828;-87
2021/06/12 10:02:07;;;;;;;7.45;6.88;;;;;;;27.85;38.95;95892.19;5021276;28;20313;-88
2021/06/12 10:04:33;;;;;;;5.25;4.93;;;;;;;27.66;39.65;95898.44;5013606;28;20290;-86
2021/06/12 10:06:59;;;;;;;5.20;4.80;;;;;;;27.60;39.05;95887.09;5007550;28;20219;-85
2021/06/12 10:09:25;;;;;;;5.10;4.72;;;;;;;27.83;39.24;95894.31;5016436;28;20605;-85
2021/06/12 10:11:51;;;;;;;5.25;4.82;;;;;;;28.01;41.46;95894.69;5016602;28;21026;-87
2021/06/12 10:14:18;;;;;;;4.85;4.45;;;;;;;28.14;39.60;95901.97;5023053;28;60370;-87
2021/06/12 10:16:48;;;;;;;4.78;4.38;;;;;;;28.06;38.84;95902.59;5015848;28;20210;-88
2021/06/12 10:19:16;;;;;;;7.78;7.18;;;;;;;28.18;38.77;95895.84;5003429;28;20203;-87
2021/06/12 10:21:42;;;;;;;5.03;4.55;;;;;;;28.18;39.39;95895.84;5015649;28;20218;-87
2021/06/12 10:24:09;;;;;;;4.70;4.30;;;;;;;28.16;38.76;95894.53;5022699;28;20199;-87
2021/06/12 10:26:36;;;;;;;4.68;4.20;;;;;;;28.22;38.97;95904.06;5022781;28;20237;-87
2021/06/12 10:29:04;;;;;;;4.30;3.90;;;;;;;28.17;39.00;95893.47;5022931;28;20875;-88
2021/06/12 10:31:34;;;;;;;4.00;3.70;;;;;;;28.27;38.83;95892.63;5022612;28;20310;-85
2021/06/12 10:34:04;;;;;;;4.05;3.75;;;;;;;28.34;38.28;95899.16;5023068;28;20246;-86
2021/06/12 10:36:31;;;;;;;3.55;3.25;;;;;;;28.35;37.63;95889.34;5023029;28;20270;-85
2021/06/12 10:38:58;;;;;;;4.10;3.80;;;;;;;28.30;38.19;95882.22;5021743;28;20199;-84
2021/06/12 10:41:26;;;;;;;4.00;3.70;;;;;;;28.22;38.83;95893.47;5018538;28;20229;-86
2021/06/12 10:44:02;;;;;;;4.00;3.70;;;;;;;28.43;39.20;95880.78;5021338;28;20545;-85
2021/06/12 10:46:37;;;;;;;4.22;3.85;;;;;;;28.65;39.35;95880.28;5020287;28;20893;-85
2021/06/12 10:49:10;;;;;;;3.97;3.67;;;;;;;28.78;38.38;95876.91;5009581;28;20237;-87
2021/06/12 10:51:44;;;;;;;3.78;3.47;;;;;;;28.78;38.67;95866.31;5026114;28;20242;-84
2021/06/12 10:54:24;;;;;;;3.95;3.70;;;;;;;28.92;38.39;95872.53;5026686;28;20267;-85
2021/06/12 10:56:54;;;;;;;3.63;3.40;;;;;;;29.03;37.92;95883.78;5023880;28;20206;-85
2021/06/12 10:59:49;;;;;;;4.13;3.80;;;;;;;29.13;37.26;95878.34;5024932;28;20270;-84
2021/06/12 11:02:28;;;;;;;3.85;3.63;;;;;;;29.18;37.53;95876.41;5017624;28;20227;-85
2021/06/12 11:04:58;;;;;;;4.57;3.50;;;;;;;28.86;39.03;95874.44;5021418;28;20222;-84
2021/06/12 11:07:32;;;;;;;4.28;3.88;;;;;;;28.50;39.33;95866.13;5024278;28;20289;-86
2021/06/12 11:10:25;;;;;;;4.80;3.95;;;;;;;28.33;39.82;95865.78;5018343;28;20718;-86
2021/06/12 11:12:53;;;;;;;5.78;3.90;;;;;;;28.63;39.23;95858.56;5015172;28;20586;-86
2021/06/12 11:15:32;;;;;;;4.07;3.78;;;;;;;28.62;38.90;95857.78;5018978;28;20198;-87
2021/06/12 11:18:28;;;;;;;4.68;4.22;;;;;;;28.24;40.98;95861.41;5017432;28;20203;-86
2021/06/12 11:21:07;;;;;;;7.57;4.28;;;;;;;27.95;40.37;95866.69;4971337;28;20224;-86
2021/06/12 11:23:45;;;;;;;5.22;3.95;;;;;;;27.64;41.95;95858.22;5007274;28;20214;-85
2021/06/12 11:26:14;;;;;;;4.07;3.78;;;;;;;27.55;41.14;95859.84;5014159;28;20305;-85
2021/06/12 11:28:41;;;;;;;4.20;3.90;;;;;;;27.45;42.15;95858.88;5016259;28;20210;-84
2021/06/12 11:31:33;;;;;;;7.32;3.78;;;;;;;27.38;42.13;95863.69;5014431;28;20636;-83
2021/06/12 11:34:25;;;;;;;4.72;4.00;;;;;;;27.24;42.08;95852.16;5017707;28;20230;-83
2021/06/12 11:37:18;;;;;;;4.78;3.80;;;;;;;27.39;42.01;95853.88;5009848;28;20202;-84
2021/06/12 11:39:49;;;;;;;4.63;4.22;;;;;;;27.64;41.63;95858.22;5015224;28;20598;-82
2021/06/12 11:42:16;;;;;;;3.97;3.58;;;;;;;27.66;41.95;95850.81;5017396;28;20234;-83